createdAt,value
2022-08-04T00:01:49.035Z,15.80
2022-08-04T00:04:19.314Z,14.67
2022-08-04T00:06:50.064Z,13.67
2022-08-04T00:09:22.927Z,16.20
2022-08-04T00:11:50.403Z,15.03
2022-08-04T00:14:19.948Z,15.20
2022-08-04T00:16:49.357Z,18.13
2022-08-04T00:19:27.719Z,16.77
2022-08-04T00:22:00.951Z,17.23
2022-08-04T00:24:30.520Z,17.07
2022-08-04T00:26:57.878Z,16.10
2022-08-04T00:29:25.864Z,16.07
2022-08-04T00:31:56.002Z,17.53
2022-08-04T00:34:25.810Z,16.37
2022-08-04T00:36:54.226Z,19.23
2022-08-04T00:39:21.668Z,19.90
2022-08-04T00:42:04.170Z,16.17
2022-08-04T00:44:46.790Z,17.30
2022-08-04T00:47:34.190Z,19.20
2022-08-04T00:50:10.653Z,13.63
2022-08-04T00:52:45.446Z,19.53
2022-08-04T00:55:30.977Z,16.80
2022-08-04T00:58:00.997Z,16.73
2022-08-04T01:00:28.844Z,16.33
2022-08-04T01:03:08.104Z,19.03
2022-08-04T01:05:38.948Z,17.23
2022-08-04T01:08:25.084Z,17.37
2022-08-04T01:10:52.233Z,21.57
2022-08-04T01:13:37.921Z,21.47
2022-08-04T01:16:07.447Z,21.67
2022-08-04T01:18:46.929Z,19.70
2022-08-04T01:21:14.017Z,17.13
2022-08-04T01:23:51.669Z,19.90
2022-08-04T01:26:42.805Z,20.50
2022-08-04T01:29:14.222Z,22.37
2022-08-04T01:31:48.685Z,19.13
2022-08-04T01:34:16.827Z,19.20
2022-08-04T01:36:50.055Z,19.63
2022-08-04T01:39:36.658Z,20.30
2022-08-04T01:42:05.061Z,20.43
2022-08-04T01:44:37.296Z,18.97
2022-08-04T01:47:04.495Z,20.03
2022-08-04T01:49:40.325Z,22.47
2022-08-04T01:52:09.167Z,18.33
2022-08-04T01:54:38.286Z,23.00
2022-08-04T01:57:37.748Z,20.97
2022-08-04T01:59:53.854Z,18.83
2022-08-04T02:02:26.724Z,22.17
2022-08-04T02:04:53.986Z,21.17
2022-08-04T02:07:29.096Z,22.27
2022-08-04T02:10:05.426Z,18.57
2022-08-04T02:12:38.309Z,20.57
2022-08-04T02:15:17.323Z,20.93
2022-08-04T02:17:44.423Z,20.13
2022-08-04T02:20:30.341Z,24.53
2022-08-04T02:23:00.085Z,20.30
2022-08-04T02:25:28.992Z,23.33
2022-08-04T02:28:05.945Z,19.77
2022-08-04T02:30:41.679Z,18.87
2022-08-04T02:33:10.704Z,18.40
2022-08-04T02:35:39.569Z,16.20
2022-08-04T02:38:25.519Z,20.27
2022-08-04T02:40:59.317Z,18.80
2022-08-04T02:43:51.958Z,16.47
2022-08-04T02:46:20.030Z,16.00
2022-08-04T02:48:47.876Z,20.37
2022-08-04T02:51:15.953Z,14.93
2022-08-04T02:53:44.708Z,18.17
2022-08-04T02:56:12.588Z,17.73
2022-08-04T02:58:43.383Z,18.53
2022-08-04T03:01:10.775Z,18.53
2022-08-04T03:03:41.057Z,19.83
2022-08-04T03:06:11.678Z,17.53
2022-08-04T03:08:38.775Z,17.37
2022-08-04T03:11:05.925Z,20.27
2022-08-04T03:13:36.963Z,21.43
2022-08-04T03:16:10.370Z,18.13
2022-08-04T03:18:46.635Z,17.10
2022-08-04T03:21:21.450Z,17.07
2022-08-04T03:24:07.096Z,16.50
2022-08-04T03:26:55.094Z,18.47
2022-08-04T03:29:46.355Z,20.40
2022-08-04T03:32:13.471Z,19.87
2022-08-04T03:34:40.572Z,19.00
2022-08-04T03:37:10.723Z,16.90
2022-08-04T03:39:48.989Z,17.93
2022-08-04T03:42:31.362Z,19.10
2022-08-04T03:45:23.518Z,17.97
2022-08-04T03:48:03.393Z,16.43
2022-08-04T03:50:45.521Z,21.90
2022-08-04T03:53:21.662Z,19.47
2022-08-04T03:55:51.927Z,18.97
2022-08-04T03:58:25.370Z,18.10
2022-08-04T04:01:11.094Z,18.53
2022-08-04T04:03:38.814Z,18.90
2022-08-04T04:06:10.198Z,19.17
2022-08-04T04:08:39.500Z,18.43
2022-08-04T04:11:24.210Z,17.37
2022-08-04T04:13:51.575Z,15.03
2022-08-04T04:16:18.674Z,22.70
2022-08-04T04:19:04.582Z,16.97
2022-08-04T04:21:50.671Z,17.83
2022-08-04T04:24:20.775Z,16.53
2022-08-04T04:27:10.111Z,18.40
2022-08-04T04:29:43.136Z,18.33
2022-08-04T04:32:19.451Z,15.00
2022-08-04T04:34:53.134Z,14.83
2022-08-04T04:37:21.357Z,16.17
2022-08-04T04:39:57.915Z,17.37
2022-08-04T04:43:03.529Z,20.67
2022-08-04T04:45:30.680Z,16.87
2022-08-04T04:48:08.623Z,14.30
2022-08-04T04:50:50.604Z,14.40
2022-08-04T04:53:21.912Z,16.43
2022-08-04T04:55:54.265Z,15.57
2022-08-04T04:58:22.725Z,14.10
2022-08-04T05:01:08.344Z,16.63
2022-08-04T05:03:47.706Z,13.10
2022-08-04T05:06:15.255Z,14.80
2022-08-04T05:09:04.984Z,14.50
2022-08-04T05:11:44.498Z,13.73
2022-08-04T05:14:34.755Z,14.27
2022-08-04T05:17:04.491Z,16.30
2022-08-04T05:19:46.303Z,16.17
2022-08-04T05:22:19.199Z,14.50
2022-08-04T05:24:48.527Z,15.07
2022-08-04T05:27:21.808Z,14.57
2022-08-04T05:29:59.896Z,16.37
2022-08-04T05:32:33.515Z,10.33
2022-08-04T05:35:03.733Z,15.23
2022-08-04T05:37:32.837Z,13.90
2022-08-04T05:40:03.463Z,14.33
2022-08-04T05:42:32.440Z,13.40
2022-08-04T05:45:00.254Z,11.80
2022-08-04T05:47:28.754Z,15.00
2022-08-04T05:50:01.519Z,12.90
2022-08-04T05:52:30.032Z,11.63
2022-08-04T05:54:57.754Z,13.00
2022-08-04T05:57:25.679Z,14.47
2022-08-04T05:59:53.561Z,14.10
2022-08-04T06:02:21.245Z,11.53
2022-08-04T06:04:50.610Z,12.83
2022-08-04T06:07:18.652Z,10.83
2022-08-04T06:09:45.880Z,12.03
2022-08-04T06:12:20.059Z,11.57
2022-08-04T06:14:49.475Z,12.30
2022-08-04T06:19:56.400Z,9.57
2022-08-04T06:20:21.845Z,8.77
2022-08-04T06:22:53.378Z,9.30
2022-08-04T06:25:21.676Z,9.40
2022-08-04T06:27:50.087Z,9.70
2022-08-04T06:30:19.315Z,8.97
2022-08-04T06:32:48.009Z,8.57
2022-08-04T06:35:18.936Z,10.90
2022-08-04T06:37:46.965Z,11.20
2022-08-04T06:40:31.090Z,11.27
2022-08-04T06:43:00.649Z,9.03
2022-08-04T06:45:28.003Z,9.57
2022-08-04T06:47:55.432Z,9.17
2022-08-04T06:51:24.987Z,10.10
2022-08-04T06:53:10.723Z,9.97
2022-08-04T06:55:37.967Z,10.70
2022-08-04T06:58:05.790Z,9.17
2022-08-04T07:00:34.052Z,9.47
2022-08-04T07:03:01.626Z,9.80
2022-08-04T07:05:29.101Z,10.77
2022-08-04T07:07:58.286Z,10.10
2022-08-04T07:10:29.670Z,9.27
2022-08-04T07:12:57.415Z,9.20
2022-08-04T07:15:25.475Z,8.77
2022-08-04T07:17:53.435Z,8.63
2022-08-04T07:20:34.995Z,8.87
2022-08-04T07:23:03.923Z,10.05
2022-08-04T07:26:00.000Z,10.82
2022-08-04T07:28:18.878Z,7.95
2022-08-04T07:30:46.230Z,8.67
2022-08-04T07:33:13.424Z,6.47
2022-08-04T07:35:41.024Z,9.03
2022-08-04T07:38:28.817Z,7.70
2022-08-04T07:40:56.863Z,8.13
2022-08-04T07:43:24.315Z,7.30
2022-08-04T07:45:51.440Z,8.50
2022-08-04T07:48:18.965Z,7.72
2022-08-04T07:50:47.616Z,7.07
2022-08-04T07:53:55.437Z,6.57
2022-08-04T07:56:03.414Z,7.68
2022-08-04T07:58:30.653Z,9.55
2022-08-04T08:00:58.289Z,9.20
2022-08-04T08:03:26.135Z,9.10
2022-08-04T08:06:16.822Z,7.47
2022-08-04T08:08:41.094Z,6.85
2022-08-04T08:11:09.423Z,7.97
2022-08-04T08:13:37.579Z,5.20
2022-08-04T08:16:05.146Z,6.32
2022-08-04T08:18:32.834Z,5.93
2022-08-04T08:21:00.008Z,5.75
2022-08-04T08:23:27.279Z,8.23
2022-08-04T08:25:54.467Z,5.85
2022-08-04T08:28:21.795Z,7.50
2022-08-04T08:30:52.621Z,6.10
2022-08-04T08:33:21.321Z,5.95
2022-08-04T08:36:08.769Z,6.00
2022-08-04T08:38:54.654Z,6.65
2022-08-04T08:41:34.157Z,7.20
2022-08-04T08:44:37.576Z,6.35
2022-08-04T08:47:17.208Z,8.75
2022-08-04T08:50:00.269Z,7.70
2022-08-04T08:52:57.288Z,7.53
2022-08-04T08:55:48.543Z,6.40
2022-08-04T08:58:18.713Z,6.72
2022-08-04T09:00:54.411Z,7.07
2022-08-04T09:03:42.472Z,9.00
2022-08-04T09:06:29.454Z,5.72
2022-08-04T09:09:04.114Z,5.97
2022-08-04T09:11:41.139Z,8.55
2022-08-04T09:14:11.315Z,7.03
2022-08-04T09:16:47.246Z,6.65
2022-08-04T09:19:38.534Z,6.72
2022-08-04T09:22:16.174Z,6.90
2022-08-04T09:24:43.325Z,6.10
2022-08-04T09:27:19.436Z,6.47
2022-08-04T09:29:46.713Z,7.40
2022-08-04T09:32:29.193Z,6.47
2022-08-04T09:35:03.488Z,4.55
2022-08-04T09:37:55.880Z,7.30
2022-08-04T09:40:31.844Z,7.80
2022-08-04T09:43:22.674Z,6.13
2022-08-04T09:46:01.801Z,6.22
2022-08-04T09:48:43.750Z,8.07
2022-08-04T09:51:26.198Z,7.38
2022-08-04T09:54:32.160Z,11.20
2022-08-04T09:57:08.505Z,7.38
2022-08-04T09:59:55.043Z,8.75
2022-08-04T10:02:23.988Z,14.88
2022-08-04T10:04:51.833Z,9.52
2022-08-04T10:07:28.415Z,8.13
2022-08-04T10:10:01.665Z,8.35
2022-08-04T10:12:47.451Z,9.50
2022-08-04T10:15:17.706Z,7.90
2022-08-04T10:17:51.904Z,8.85
2022-08-04T10:20:45.604Z,8.40
2022-08-04T10:23:19.250Z,8.02
2022-08-04T10:26:07.497Z,8.82
2022-08-04T10:28:46.145Z,8.85
2022-08-04T10:31:16.624Z,8.52
2022-08-04T10:33:47.686Z,7.03
2022-08-04T10:36:17.650Z,8.30
2022-08-04T10:38:57.228Z,9.05
2022-08-04T10:41:24.448Z,8.68
2022-08-04T10:44:09.827Z,8.52
2022-08-04T10:46:38.250Z,8.40
2022-08-04T10:49:10.432Z,8.52
2022-08-04T10:51:57.343Z,12.23
2022-08-04T10:54:26.715Z,9.13
2022-08-04T10:56:57.523Z,10.02
2022-08-04T10:59:35.150Z,13.18
2022-08-04T11:02:19.105Z,8.77
2022-08-04T11:04:48.739Z,10.85
2022-08-04T11:07:17.536Z,10.52
2022-08-04T11:09:45.333Z,8.73
2022-08-04T11:12:22.513Z,8.73
2022-08-04T11:14:49.625Z,9.25
2022-08-04T11:17:21.420Z,9.85
2022-08-04T11:19:53.180Z,8.07
2022-08-04T11:22:24.051Z,10.38
2022-08-04T11:24:53.279Z,10.35
2022-08-04T11:27:28.891Z,10.43
2022-08-04T11:30:05.593Z,12.95
2022-08-04T11:32:35.600Z,10.27
2022-08-04T11:35:04.794Z,11.30
2022-08-04T11:37:50.435Z,12.13
2022-08-04T11:40:23.660Z,10.60
2022-08-04T11:42:57.347Z,9.20
2022-08-04T11:45:28.801Z,7.95
2022-08-04T11:48:09.460Z,8.02
2022-08-04T11:50:41.633Z,9.77
2022-08-04T11:53:09.702Z,8.63
2022-08-04T11:56:06.812Z,11.18
2022-08-04T11:58:26.090Z,11.70
2022-08-04T12:00:56.049Z,10.07
2022-08-04T12:03:37.701Z,10.15
2022-08-04T12:06:11.453Z,8.57
2022-08-04T12:08:57.625Z,9.13
2022-08-04T12:11:38.612Z,12.00
2022-08-04T12:14:13.847Z,9.88
2022-08-04T12:16:49.383Z,7.55
2022-08-04T12:19:24.790Z,10.38
2022-08-04T12:22:00.975Z,10.57
2022-08-04T12:24:32.024Z,9.10
2022-08-04T12:27:01.409Z,11.15
2022-08-04T12:29:31.927Z,7.22
2022-08-04T12:32:08.192Z,7.80
2022-08-04T12:34:45.793Z,10.05
2022-08-04T12:37:32.626Z,7.63
2022-08-04T12:40:28.358Z,8.52
2022-08-04T12:42:59.996Z,8.13
2022-08-04T12:45:28.706Z,7.60
2022-08-04T12:47:58.535Z,7.47
2022-08-04T12:50:25.774Z,9.00
2022-08-04T12:53:03.558Z,6.70
2022-08-04T12:55:33.320Z,6.80
2022-08-04T12:58:02.295Z,7.68
2022-08-04T13:00:38.265Z,7.35
2022-08-04T13:03:10.754Z,8.88
2022-08-04T13:05:39.106Z,9.07
2022-08-04T13:08:07.059Z,9.10
2022-08-04T13:10:37.872Z,9.98
2022-08-04T13:13:05.100Z,8.95
2022-08-04T13:15:33.622Z,8.75
2022-08-04T13:18:15.637Z,8.02
2022-08-04T13:20:44.400Z,7.45
2022-08-04T13:23:14.561Z,8.07
2022-08-04T13:26:42.867Z,8.30
2022-08-04T13:30:25.427Z,7.15
2022-08-04T13:31:35.786Z,7.10
2022-08-04T13:34:05.435Z,7.20
2022-08-04T13:36:34.151Z,8.25
2022-08-04T13:39:04.860Z,6.57
2022-08-04T13:41:32.105Z,9.15
2022-08-04T13:44:18.658Z,8.48
2022-08-04T13:46:50.447Z,8.38
2022-08-04T13:52:11.513Z,11.85
2022-08-04T13:54:47.179Z,8.88
2022-08-04T13:57:24.129Z,7.88
2022-08-04T13:59:53.154Z,7.15
2022-08-04T14:02:41.460Z,9.50
2022-08-04T14:05:22.333Z,10.40
2022-08-04T14:07:56.566Z,11.82
2022-08-04T14:10:25.120Z,18.05
2022-08-04T14:12:52.774Z,13.95
2022-08-04T14:16:01.073Z,12.82
2022-08-04T14:18:26.708Z,11.55
2022-08-04T14:21:05.900Z,11.32
2022-08-04T14:23:46.893Z,11.18
2022-08-04T14:26:32.384Z,12.85
2022-08-04T14:29:27.890Z,11.00
2022-08-04T14:32:12.784Z,14.10
2022-08-04T14:34:50.093Z,11.03
2022-08-04T14:37:20.559Z,13.00
2022-08-04T14:40:08.807Z,10.93
2022-08-04T14:42:41.220Z,10.07
2022-08-04T14:45:08.803Z,11.63
2022-08-04T14:47:40.651Z,11.63
2022-08-04T14:50:09.793Z,13.83
2022-08-04T14:52:37.609Z,12.60
2022-08-04T14:55:18.158Z,11.80
2022-08-04T14:58:33.912Z,10.87
2022-08-04T15:00:34.455Z,11.80
2022-08-04T15:03:04.746Z,18.57
2022-08-04T15:06:02.507Z,15.20
2022-08-04T15:08:19.717Z,13.33
2022-08-04T15:10:46.863Z,12.17
2022-08-04T15:13:15.635Z,16.80
2022-08-04T15:15:43.734Z,14.10
2022-08-04T15:18:30.905Z,11.83
2022-08-04T15:20:58.875Z,10.83
2022-08-04T15:23:26.012Z,13.63
2022-08-04T15:26:07.513Z,12.17
2022-08-04T15:28:36.645Z,10.03
2022-08-04T15:31:04.898Z,11.03
2022-08-04T15:33:40.391Z,8.40
2022-08-04T15:36:14.667Z,8.57
2022-08-04T15:39:02.259Z,6.60
2022-08-04T15:41:34.554Z,10.77
2022-08-04T15:44:01.686Z,9.97
2022-08-04T15:46:44.621Z,10.10
2022-08-04T15:49:24.584Z,11.80
2022-08-04T15:52:01.343Z,11.80
2022-08-04T15:54:32.736Z,28.80
2022-08-04T15:57:02.248Z,16.03
2022-08-04T15:59:49.399Z,14.10
2022-08-04T16:02:35.108Z,6.90
2022-08-04T16:05:17.842Z,9.30
2022-08-04T16:08:04.616Z,10.47
2022-08-04T16:10:32.626Z,12.00
2022-08-04T16:13:04.380Z,24.83
2022-08-04T16:15:38.016Z,15.20
2022-08-04T16:18:06.264Z,15.47
2022-08-04T16:20:36.624Z,16.50
2022-08-04T16:23:31.713Z,18.17
2022-08-04T16:26:03.254Z,19.80
2022-08-04T16:28:37.744Z,25.00
2022-08-04T16:31:05.947Z,23.30
2022-08-04T16:33:44.152Z,24.20
2022-08-04T16:36:16.610Z,16.53
2022-08-04T16:39:02.182Z,24.60
2022-08-04T16:41:39.398Z,22.37
2022-08-04T16:44:50.471Z,24.20
2022-08-04T16:47:22.759Z,22.23
2022-08-04T16:50:01.914Z,24.83
2022-08-04T16:52:29.145Z,19.20
2022-08-04T16:54:59.448Z,23.37
2022-08-04T16:57:26.606Z,23.07
2022-08-04T16:59:53.861Z,19.07
2022-08-04T17:02:26.026Z,21.73
2022-08-04T17:05:01.019Z,22.23
2022-08-04T17:08:02.153Z,20.27
2022-08-04T17:10:44.627Z,21.47
2022-08-04T17:14:02.674Z,20.43
2022-08-04T17:16:29.739Z,25.63
2022-08-04T17:18:57.780Z,21.47
2022-08-04T17:21:24.985Z,22.70
2022-08-04T17:24:12.716Z,18.27
2022-08-04T17:26:41.919Z,17.37
2022-08-04T17:29:13.267Z,18.40
2022-08-04T17:31:47.977Z,18.57
2022-08-04T17:37:36.513Z,15.00
2022-08-04T17:39:50.997Z,17.00
2022-08-04T17:42:33.270Z,20.27
2022-08-04T17:45:53.262Z,21.73
2022-08-04T17:48:24.527Z,20.43
2022-08-04T17:50:52.384Z,31.47
2022-08-04T17:54:01.932Z,25.63
2022-08-04T17:56:29.483Z,25.17
2022-08-04T17:59:06.536Z,25.87
2022-08-04T18:02:08.941Z,14.23
2022-08-04T18:04:40.509Z,16.40
2022-08-04T18:08:40.152Z,16.87
2022-08-04T18:10:44.505Z,15.10
2022-08-04T18:13:22.972Z,23.57
2022-08-04T18:15:51.194Z,19.83
2022-08-04T18:18:23.047Z,23.10
2022-08-04T18:20:50.917Z,19.83
2022-08-04T18:23:18.057Z,18.30
2022-08-04T18:25:51.261Z,17.00
2022-08-04T18:28:26.619Z,22.00
2022-08-04T18:30:55.589Z,24.50
2022-08-04T18:33:39.548Z,20.57
2022-08-04T18:38:58.287Z,22.10
2022-08-04T18:41:26.517Z,32.03
2022-08-04T18:43:55.974Z,36.13
2022-08-04T18:46:27.171Z,34.70
2022-08-04T18:48:55.040Z,28.80
2022-08-04T18:51:24.968Z,27.83
2022-08-04T18:53:58.731Z,33.93
2022-08-04T18:56:29.710Z,32.63
2022-08-04T18:59:00.059Z,29.83
2022-08-04T19:01:29.586Z,30.27
2022-08-04T19:03:58.093Z,36.10
2022-08-04T19:06:25.940Z,42.00
2022-08-04T19:08:54.632Z,36.03
2022-08-04T19:11:38.481Z,38.23
2022-08-04T19:14:12.974Z,31.30
2022-08-04T19:16:40.788Z,36.07
2022-08-04T19:19:08.177Z,35.43
2022-08-04T19:22:00.609Z,42.40
2022-08-04T19:27:09.814Z,29.33
2022-08-04T19:29:41.378Z,35.73
2022-08-04T19:32:13.942Z,38.13
2022-08-04T19:34:46.211Z,35.77
2022-08-04T19:37:56.008Z,38.70
2022-08-04T19:40:02.475Z,35.53
2022-08-04T19:42:31.855Z,28.70
2022-08-04T19:44:59.354Z,29.23
2022-08-04T19:48:12.017Z,24.60
2022-08-04T19:50:13.846Z,23.93
2022-08-04T19:52:51.454Z,24.07
2022-08-04T19:55:22.412Z,21.60
2022-08-04T19:57:50.114Z,17.77
2022-08-04T20:00:32.857Z,18.27
2022-08-04T20:03:01.413Z,24.03
2022-08-04T20:05:54.416Z,21.87
2022-08-04T20:08:17.077Z,19.03
2022-08-04T20:10:51.574Z,21.03
2022-08-04T20:13:19.649Z,18.80
2022-08-04T20:15:57.322Z,16.17
2022-08-04T20:21:22.725Z,18.40
2022-08-04T20:23:52.314Z,15.03
2022-08-04T20:26:19.564Z,14.10
2022-08-04T20:28:51.754Z,13.10
2022-08-04T20:31:19.245Z,15.00
2022-08-04T20:33:49.240Z,14.47
2022-08-04T20:36:21.454Z,13.90
2022-08-04T20:38:52.801Z,14.77
2022-08-04T20:41:20.390Z,16.37
2022-08-04T20:43:49.902Z,15.00
2022-08-04T20:46:29.385Z,13.03
2022-08-04T20:48:57.372Z,10.80
2022-08-04T20:51:31.829Z,11.03
2022-08-04T20:54:01.030Z,12.60
2022-08-04T20:56:30.565Z,10.83
2022-08-04T20:59:17.134Z,11.87
2022-08-04T21:01:48.808Z,10.50
2022-08-04T21:04:31.921Z,11.43
2022-08-04T21:07:00.092Z,13.07
2022-08-04T21:09:37.845Z,14.97
2022-08-04T21:12:09.756Z,11.63
2022-08-04T21:14:36.875Z,11.00
2022-08-04T21:17:07.376Z,10.73
2022-08-04T21:22:29.978Z,10.40
2022-08-04T21:25:00.682Z,10.47
2022-08-04T21:27:28.784Z,11.67
2022-08-04T21:29:56.014Z,10.37
2022-08-04T21:32:27.368Z,10.97
2022-08-04T21:34:57.643Z,10.93
2022-08-04T21:37:24.767Z,12.13
2022-08-04T21:40:14.634Z,10.33
2022-08-04T21:42:50.082Z,13.87
2022-08-04T21:45:20.876Z,11.47
2022-08-04T21:47:49.780Z,11.70
2022-08-04T21:50:20.029Z,11.97
2022-08-04T21:52:48.568Z,13.37
2022-08-04T21:55:16.304Z,12.30
2022-08-04T21:57:43.428Z,12.57
2022-08-04T22:00:18.508Z,13.23
2022-08-04T22:02:47.292Z,14.30
2022-08-04T22:05:20.930Z,12.80
2022-08-04T22:07:50.889Z,11.90
2022-08-04T22:10:32.297Z,13.40
2022-08-04T22:13:06.880Z,12.90
2022-08-04T22:16:03.796Z,14.97
2022-08-04T22:18:24.593Z,16.33
2022-08-04T22:20:55.168Z,12.67
2022-08-04T22:23:24.092Z,11.00
2022-08-04T22:25:55.371Z,13.17
2022-08-04T22:28:24.562Z,12.80
2022-08-04T22:30:55.919Z,12.30
2022-08-04T22:33:23.205Z,14.57
2022-08-04T22:35:50.522Z,13.13
2022-08-04T22:38:28.915Z,13.53
2022-08-04T22:41:08.645Z,14.10
2022-08-04T22:43:37.578Z,14.47
2022-08-04T22:46:06.553Z,16.47
2022-08-04T22:48:37.635Z,13.83
2022-08-04T22:51:06.063Z,14.83
2022-08-04T22:53:34.588Z,15.20
2022-08-04T22:56:09.974Z,15.50
2022-08-04T22:58:45.466Z,13.27
2022-08-04T23:01:17.600Z,14.30
2022-08-04T23:03:55.253Z,15.43
2022-08-04T23:06:24.332Z,15.43
2022-08-04T23:08:51.948Z,13.60
2022-08-04T23:11:19.131Z,16.03
2022-08-04T23:13:47.238Z,15.57
2022-08-04T23:16:17.005Z,15.53
2022-08-04T23:18:48.162Z,13.47
2022-08-04T23:21:16.049Z,13.87
2022-08-04T23:23:47.705Z,15.57
2022-08-04T23:26:28.471Z,13.73
2022-08-04T23:28:56.184Z,15.50
2022-08-04T23:31:23.518Z,15.50
2022-08-04T23:33:52.139Z,14.50
2022-08-04T23:36:29.628Z,14.57
2022-08-04T23:39:01.271Z,13.73
2022-08-04T23:41:53.840Z,13.73
2022-08-04T23:44:24.675Z,13.83
2022-08-04T23:47:03.555Z,13.63
2022-08-04T23:49:43.457Z,14.67
2022-08-04T23:52:23.593Z,14.87
2022-08-04T23:54:58.274Z,16.37
2022-08-04T23:58:02.029Z,16.30
